SYLD weather

Linden Airport
Linden, Upper Demerara-Berbice, Guyana

Public forecast

Using degrees Celsius for public forecast. Weather courtesy of forecast.io.

METAR (pilot weather report)

Closest report is Cheddi Jagan International Airport, 32.0 nm (59.3 km) N. Retrieved 2019/02/16 19:00 UTC (10 minutes ago):

SYCJ 161900Z 07014KT 9999 BKN023 30/22 Q1013 NOSIG

TAF (pilot weather forecast)

Forecast is more than 12 hours old.

Closest forecast is Cheddi Jagan International Airport, 32.0 nm (59.3 km) N. Retrieved 2019/02/16 06:28 UTC (13 hours ago):

TAF SYCJ 160524Z 1606/1706 06004KT 9999 FEW014 BECMG 1611/1613 06012KT 9999 BKN019 SCT038 BECMG 1621/1623 05004KT 9999 FEW016